sensor_id;sensor_type;location;lat;lon;timestamp;P1;durP1;ratioP1;P2;durP2;ratioP2
53299;SDS011;39187;48.476;8.310;2023-08-21T00:01:19;8.20;;;7.70;;
53299;SDS011;39187;48.476;8.310;2023-08-21T00:03:45;7.40;;;6.80;;
53299;SDS011;39187;48.476;8.310;2023-08-21T00:06:10;9.87;;;8.10;;
53299;SDS011;39187;48.476;8.310;2023-08-21T00:08:36;10.53;;;7.70;;
53299;SDS011;39187;48.476;8.310;2023-08-21T00:11:01;8.37;;;7.80;;
53299;SDS011;39187;48.476;8.310;2023-08-21T00:13:27;9.70;;;9.10;;
53299;SDS011;39187;48.476;8.310;2023-08-21T00:15:52;7.57;;;7.13;;
53299;SDS011;39187;48.476;8.310;2023-08-21T00:18:20;8.40;;;7.90;;
53299;SDS011;39187;48.476;8.310;2023-08-21T00:20:46;8.70;;;8.07;;
53299;SDS011;39187;48.476;8.310;2023-08-21T00:23:11;9.73;;;7.53;;
53299;SDS011;39187;48.476;8.310;2023-08-21T00:25:37;11.77;;;7.17;;
53299;SDS011;39187;48.476;8.310;2023-08-21T00:28:02;9.03;;;8.33;;
53299;SDS011;39187;48.476;8.310;2023-08-21T00:30:28;8.70;;;8.00;;
53299;SDS011;39187;48.476;8.310;2023-08-21T00:32:54;8.40;;;7.87;;
53299;SDS011;39187;48.476;8.310;2023-08-21T00:35:19;7.70;;;6.77;;
53299;SDS011;39187;48.476;8.310;2023-08-21T00:37:45;6.70;;;6.40;;
53299;SDS011;39187;48.476;8.310;2023-08-21T00:40:12;7.40;;;6.80;;
53299;SDS011;39187;48.476;8.310;2023-08-21T00:42:38;8.03;;;6.90;;
53299;SDS011;39187;48.476;8.310;2023-08-21T00:45:04;7.03;;;6.63;;
53299;SDS011;39187;48.476;8.310;2023-08-21T00:47:30;10.73;;;8.20;;
53299;SDS011;39187;48.476;8.310;2023-08-21T00:49:55;8.47;;;7.97;;
53299;SDS011;39187;48.476;8.310;2023-08-21T00:52:21;7.57;;;6.87;;
53299;SDS011;39187;48.476;8.310;2023-08-21T00:54:47;7.83;;;7.07;;
53299;SDS011;39187;48.476;8.310;2023-08-21T00:57:13;8.53;;;7.73;;
53299;SDS011;39187;48.476;8.310;2023-08-21T00:59:39;8.53;;;8.13;;
53299;SDS011;39187;48.476;8.310;2023-08-21T01:02:05;7.40;;;6.80;;
53299;SDS011;39187;48.476;8.310;2023-08-21T01:04:31;7.37;;;6.90;;
53299;SDS011;39187;48.476;8.310;2023-08-21T01:06:57;7.47;;;6.90;;
53299;SDS011;39187;48.476;8.310;2023-08-21T01:09:27;6.63;;;6.33;;
53299;SDS011;39187;48.476;8.310;2023-08-21T01:14:54;7.10;;;6.80;;
53299;SDS011;39187;48.476;8.310;2023-08-21T01:17:24;8.60;;;7.07;;
53299;SDS011;39187;48.476;8.310;2023-08-21T01:19:51;7.53;;;6.90;;
53299;SDS011;39187;48.476;8.310;2023-08-21T01:22:18;7.30;;;6.83;;
53299;SDS011;39187;48.476;8.310;2023-08-21T01:24:43;7.57;;;7.17;;
53299;SDS011;39187;48.476;8.310;2023-08-21T01:27:09;7.50;;;6.77;;
53299;SDS011;39187;48.476;8.310;2023-08-21T01:29:37;7.10;;;6.80;;
53299;SDS011;39187;48.476;8.310;2023-08-21T01:32:22;6.30;;;6.10;;
53299;SDS011;39187;48.476;8.310;2023-08-21T01:34:54;5.90;;;5.43;;
53299;SDS011;39187;48.476;8.310;2023-08-21T01:37:21;7.90;;;6.40;;
53299;SDS011;39187;48.476;8.310;2023-08-21T01:39:47;6.67;;;6.27;;
53299;SDS011;39187;48.476;8.310;2023-08-21T01:42:12;8.23;;;7.37;;
53299;SDS011;39187;48.476;8.310;2023-08-21T01:44:38;9.03;;;6.20;;
53299;SDS011;39187;48.476;8.310;2023-08-21T01:47:03;7.50;;;7.10;;
53299;SDS011;39187;48.476;8.310;2023-08-21T01:49:29;6.53;;;6.03;;
53299;SDS011;39187;48.476;8.310;2023-08-21T01:51:55;7.30;;;6.43;;
53299;SDS011;39187;48.476;8.310;2023-08-21T01:54:20;6.80;;;6.07;;
53299;SDS011;39187;48.476;8.310;2023-08-21T01:56:46;7.60;;;6.80;;
53299;SDS011;39187;48.476;8.310;2023-08-21T01:59:11;6.60;;;6.30;;
53299;SDS011;39187;48.476;8.310;2023-08-21T02:01:37;8.17;;;7.77;;
53299;SDS011;39187;48.476;8.310;2023-08-21T02:04:02;8.00;;;6.97;;
53299;SDS011;39187;48.476;8.310;2023-08-21T02:06:28;8.20;;;6.77;;
53299;SDS011;39187;48.476;8.310;2023-08-21T02:08:53;10.13;;;7.27;;
53299;SDS011;39187;48.476;8.310;2023-08-21T02:11:19;6.80;;;6.30;;
53299;SDS011;39187;48.476;8.310;2023-08-21T02:13:44;7.67;;;7.07;;
53299;SDS011;39187;48.476;8.310;2023-08-21T02:16:09;7.90;;;7.23;;
53299;SDS011;39187;48.476;8.310;2023-08-21T02:18:35;8.13;;;7.43;;
53299;SDS011;39187;48.476;8.310;2023-08-21T02:21:01;8.20;;;7.37;;
53299;SDS011;39187;48.476;8.310;2023-08-21T02:23:27;9.70;;;7.37;;
53299;SDS011;39187;48.476;8.310;2023-08-21T02:25:53;6.40;;;6.10;;
53299;SDS011;39187;48.476;8.310;2023-08-21T02:28:19;7.13;;;6.70;;
53299;SDS011;39187;48.476;8.310;2023-08-21T02:30:45;7.90;;;6.80;;
53299;SDS011;39187;48.476;8.310;2023-08-21T02:33:10;8.00;;;7.20;;
53299;SDS011;39187;48.476;8.310;2023-08-21T02:35:36;6.37;;;6.07;;
53299;SDS011;39187;48.476;8.310;2023-08-21T02:38:01;8.13;;;7.53;;
53299;SDS011;39187;48.476;8.310;2023-08-21T02:40:27;8.07;;;7.47;;
53299;SDS011;39187;48.476;8.310;2023-08-21T02:42:52;8.60;;;6.80;;
53299;SDS011;39187;48.476;8.310;2023-08-21T02:45:18;7.83;;;7.33;;
53299;SDS011;39187;48.476;8.310;2023-08-21T02:47:44;6.53;;;6.10;;
53299;SDS011;39187;48.476;8.310;2023-08-21T02:50:10;7.13;;;6.83;;
53299;SDS011;39187;48.476;8.310;2023-08-21T02:52:36;7.30;;;6.90;;
53299;SDS011;39187;48.476;8.310;2023-08-21T02:55:02;7.43;;;7.03;;
53299;SDS011;39187;48.476;8.310;2023-08-21T02:57:29;7.70;;;7.30;;
53299;SDS011;39187;48.476;8.310;2023-08-21T02:59:55;8.07;;;7.53;;
53299;SDS011;39187;48.476;8.310;2023-08-21T03:02:21;8.97;;;8.27;;
53299;SDS011;39187;48.476;8.310;2023-08-21T03:04:47;7.23;;;6.70;;
53299;SDS011;39187;48.476;8.310;2023-08-21T03:07:13;7.47;;;6.87;;
53299;SDS011;39187;48.476;8.310;2023-08-21T03:09:39;8.73;;;7.90;;
53299;SDS011;39187;48.476;8.310;2023-08-21T03:12:05;9.00;;;8.17;;
53299;SDS011;39187;48.476;8.310;2023-08-21T03:14:32;7.40;;;7.07;;
53299;SDS011;39187;48.476;8.310;2023-08-21T03:16:57;7.37;;;7.07;;
53299;SDS011;39187;48.476;8.310;2023-08-21T03:19:23;8.03;;;7.63;;
53299;SDS011;39187;48.476;8.310;2023-08-21T03:21:48;8.53;;;7.93;;
53299;SDS011;39187;48.476;8.310;2023-08-21T03:24:14;7.73;;;7.23;;
53299;SDS011;39187;48.476;8.310;2023-08-21T03:26:40;8.63;;;7.93;;
53299;SDS011;39187;48.476;8.310;2023-08-21T03:29:05;8.30;;;7.70;;
53299;SDS011;39187;48.476;8.310;2023-08-21T03:31:31;8.57;;;8.10;;
53299;SDS011;39187;48.476;8.310;2023-08-21T03:33:56;8.63;;;7.90;;
53299;SDS011;39187;48.476;8.310;2023-08-21T03:36:22;8.13;;;7.60;;
53299;SDS011;39187;48.476;8.310;2023-08-21T03:38:58;8.13;;;7.43;;
53299;SDS011;39187;48.476;8.310;2023-08-21T03:41:25;7.83;;;7.43;;
53299;SDS011;39187;48.476;8.310;2023-08-21T03:43:50;11.13;;;7.30;;
53299;SDS011;39187;48.476;8.310;2023-08-21T03:46:16;8.10;;;7.50;;
53299;SDS011;39187;48.476;8.310;2023-08-21T03:48:42;8.50;;;7.90;;
53299;SDS011;39187;48.476;8.310;2023-08-21T03:51:07;7.90;;;7.43;;
53299;SDS011;39187;48.476;8.310;2023-08-21T03:53:33;9.67;;;8.70;;
53299;SDS011;39187;48.476;8.310;2023-08-21T03:55:58;8.83;;;8.20;;
53299;SDS011;39187;48.476;8.310;2023-08-21T03:58:24;7.80;;;7.03;;
53299;SDS011;39187;48.476;8.310;2023-08-21T04:00:51;7.50;;;7.13;;
53299;SDS011;39187;48.476;8.310;2023-08-21T04:03:17;8.00;;;7.40;;
53299;SDS011;39187;48.476;8.310;2023-08-21T04:05:43;8.40;;;7.70;;
53299;SDS011;39187;48.476;8.310;2023-08-21T04:08:08;7.43;;;6.97;;
53299;SDS011;39187;48.476;8.310;2023-08-21T04:10:34;9.50;;;7.80;;
53299;SDS011;39187;48.476;8.310;2023-08-21T04:12:59;7.97;;;7.40;;
53299;SDS011;39187;48.476;8.310;2023-08-21T04:15:25;9.90;;;9.10;;
53299;SDS011;39187;48.476;8.310;2023-08-21T04:17:51;8.20;;;7.70;;
53299;SDS011;39187;48.476;8.310;2023-08-21T04:20:16;10.07;;;8.40;;
53299;SDS011;39187;48.476;8.310;2023-08-21T04:22:43;9.10;;;8.60;;
53299;SDS011;39187;48.476;8.310;2023-08-21T04:25:08;10.77;;;9.20;;
53299;SDS011;39187;48.476;8.310;2023-08-21T04:27:34;14.43;;;8.53;;
53299;SDS011;39187;48.476;8.310;2023-08-21T04:30:00;7.97;;;7.43;;
53299;SDS011;39187;48.476;8.310;2023-08-21T04:32:25;8.87;;;8.37;;
53299;SDS011;39187;48.476;8.310;2023-08-21T04:34:51;10.47;;;9.13;;
53299;SDS011;39187;48.476;8.310;2023-08-21T04:37:16;8.80;;;8.00;;
53299;SDS011;39187;48.476;8.310;2023-08-21T04:39:42;8.50;;;7.80;;
53299;SDS011;39187;48.476;8.310;2023-08-21T04:42:07;8.43;;;7.63;;
53299;SDS011;39187;48.476;8.310;2023-08-21T04:44:33;9.47;;;8.93;;
53299;SDS011;39187;48.476;8.310;2023-08-21T04:47:18;8.23;;;7.50;;
53299;SDS011;39187;48.476;8.310;2023-08-21T04:49:53;10.17;;;8.37;;
53299;SDS011;39187;48.476;8.310;2023-08-21T04:52:19;8.53;;;7.90;;
53299;SDS011;39187;48.476;8.310;2023-08-21T04:54:46;8.37;;;7.87;;
53299;SDS011;39187;48.476;8.310;2023-08-21T04:57:12;9.27;;;8.17;;
53299;SDS011;39187;48.476;8.310;2023-08-21T04:59:38;13.43;;;8.03;;
53299;SDS011;39187;48.476;8.310;2023-08-21T05:02:04;7.67;;;7.30;;
53299;SDS011;39187;48.476;8.310;2023-08-21T05:04:29;8.20;;;7.50;;
53299;SDS011;39187;48.476;8.310;2023-08-21T05:06:55;10.00;;;7.97;;
53299;SDS011;39187;48.476;8.310;2023-08-21T05:09:20;8.20;;;7.70;;
53299;SDS011;39187;48.476;8.310;2023-08-21T05:11:46;7.83;;;7.27;;
53299;SDS011;39187;48.476;8.310;2023-08-21T05:14:11;8.60;;;7.97;;
53299;SDS011;39187;48.476;8.310;2023-08-21T05:16:37;9.23;;;8.40;;
53299;SDS011;39187;48.476;8.310;2023-08-21T05:19:02;8.87;;;8.23;;
53299;SDS011;39187;48.476;8.310;2023-08-21T05:21:29;7.80;;;7.20;;
53299;SDS011;39187;48.476;8.310;2023-08-21T05:23:54;8.37;;;7.60;;
53299;SDS011;39187;48.476;8.310;2023-08-21T05:26:20;8.43;;;7.83;;
53299;SDS011;39187;48.476;8.310;2023-08-21T05:28:46;8.50;;;7.90;;
53299;SDS011;39187;48.476;8.310;2023-08-21T05:31:11;10.33;;;6.30;;
53299;SDS011;39187;48.476;8.310;2023-08-21T05:33:37;7.07;;;6.57;;
53299;SDS011;39187;48.476;8.310;2023-08-21T05:36:02;7.30;;;6.80;;
53299;SDS011;39187;48.476;8.310;2023-08-21T05:38:28;7.53;;;7.03;;
53299;SDS011;39187;48.476;8.310;2023-08-21T05:40:54;7.30;;;6.90;;
53299;SDS011;39187;48.476;8.310;2023-08-21T05:43:19;7.23;;;6.73;;
53299;SDS011;39187;48.476;8.310;2023-08-21T05:45:44;6.90;;;6.40;;
53299;SDS011;39187;48.476;8.310;2023-08-21T05:48:10;6.20;;;5.80;;
53299;SDS011;39187;48.476;8.310;2023-08-21T05:50:36;6.90;;;6.60;;
53299;SDS011;39187;48.476;8.310;2023-08-21T05:53:04;6.27;;;5.97;;
53299;SDS011;39187;48.476;8.310;2023-08-21T05:55:30;6.27;;;5.97;;
53299;SDS011;39187;48.476;8.310;2023-08-21T05:57:56;6.83;;;6.43;;
53299;SDS011;39187;48.476;8.310;2023-08-21T06:00:21;7.53;;;6.20;;
53299;SDS011;39187;48.476;8.310;2023-08-21T06:02:47;6.43;;;6.13;;
53299;SDS011;39187;48.476;8.310;2023-08-21T06:05:13;13.07;;;6.60;;
53299;SDS011;39187;48.476;8.310;2023-08-21T06:07:38;7.17;;;6.50;;
53299;SDS011;39187;48.476;8.310;2023-08-21T06:10:06;8.90;;;6.40;;
53299;SDS011;39187;48.476;8.310;2023-08-21T06:12:32;6.67;;;6.20;;
53299;SDS011;39187;48.476;8.310;2023-08-21T06:14:57;6.20;;;5.90;;
53299;SDS011;39187;48.476;8.310;2023-08-21T06:17:23;7.23;;;6.57;;
53299;SDS011;39187;48.476;8.310;2023-08-21T06:19:48;8.50;;;5.70;;
53299;SDS011;39187;48.476;8.310;2023-08-21T06:22:14;5.43;;;5.20;;
53299;SDS011;39187;48.476;8.310;2023-08-21T06:24:40;5.40;;;5.00;;
53299;SDS011;39187;48.476;8.310;2023-08-21T06:27:06;6.07;;;5.70;;
53299;SDS011;39187;48.476;8.310;2023-08-21T06:29:32;8.30;;;6.17;;
53299;SDS011;39187;48.476;8.310;2023-08-21T06:31:58;6.90;;;6.33;;
53299;SDS011;39187;48.476;8.310;2023-08-21T06:34:23;8.60;;;6.67;;
53299;SDS011;39187;48.476;8.310;2023-08-21T06:36:49;6.50;;;5.93;;
53299;SDS011;39187;48.476;8.310;2023-08-21T06:39:14;6.23;;;5.90;;
53299;SDS011;39187;48.476;8.310;2023-08-21T06:41:40;7.13;;;4.97;;
53299;SDS011;39187;48.476;8.310;2023-08-21T06:44:05;5.20;;;5.00;;
53299;SDS011;39187;48.476;8.310;2023-08-21T06:46:32;6.30;;;5.90;;
53299;SDS011;39187;48.476;8.310;2023-08-21T06:48:58;4.87;;;4.50;;
53299;SDS011;39187;48.476;8.310;2023-08-21T06:51:23;6.43;;;5.40;;
53299;SDS011;39187;48.476;8.310;2023-08-21T06:53:49;5.77;;;5.50;;
53299;SDS011;39187;48.476;8.310;2023-08-21T06:56:15;6.10;;;5.70;;
53299;SDS011;39187;48.476;8.310;2023-08-21T06:58:40;11.03;;;5.57;;
53299;SDS011;39187;48.476;8.310;2023-08-21T07:01:06;6.13;;;5.40;;
53299;SDS011;39187;48.476;8.310;2023-08-21T07:03:31;6.73;;;5.30;;
53299;SDS011;39187;48.476;8.310;2023-08-21T07:05:57;5.33;;;4.90;;
53299;SDS011;39187;48.476;8.310;2023-08-21T07:08:24;5.63;;;5.20;;
53299;SDS011;39187;48.476;8.310;2023-08-21T07:10:51;6.33;;;5.70;;
53299;SDS011;39187;48.476;8.310;2023-08-21T07:13:17;5.93;;;5.50;;
53299;SDS011;39187;48.476;8.310;2023-08-21T07:15:42;5.83;;;5.50;;
53299;SDS011;39187;48.476;8.310;2023-08-21T07:18:08;5.50;;;5.30;;
53299;SDS011;39187;48.476;8.310;2023-08-21T07:20:34;11.33;;;5.47;;
53299;SDS011;39187;48.476;8.310;2023-08-21T07:22:59;5.93;;;5.63;;
53299;SDS011;39187;48.476;8.310;2023-08-21T07:25:25;5.80;;;5.53;;
53299;SDS011;39187;48.476;8.310;2023-08-21T07:27:51;9.00;;;5.50;;
53299;SDS011;39187;48.476;8.310;2023-08-21T07:30:20;6.30;;;6.00;;
53299;SDS011;39187;48.476;8.310;2023-08-21T07:32:47;6.30;;;5.80;;
53299;SDS011;39187;48.476;8.310;2023-08-21T07:35:13;6.87;;;6.27;;
53299;SDS011;39187;48.476;8.310;2023-08-21T07:37:38;6.70;;;6.30;;
53299;SDS011;39187;48.476;8.310;2023-08-21T07:40:06;7.00;;;6.50;;
53299;SDS011;39187;48.476;8.310;2023-08-21T07:42:32;6.47;;;6.07;;
53299;SDS011;39187;48.476;8.310;2023-08-21T07:44:57;5.80;;;5.50;;
53299;SDS011;39187;48.476;8.310;2023-08-21T07:47:23;6.23;;;5.90;;
53299;SDS011;39187;48.476;8.310;2023-08-21T07:49:48;6.13;;;5.67;;
53299;SDS011;39187;48.476;8.310;2023-08-21T07:52:14;6.00;;;5.60;;
53299;SDS011;39187;48.476;8.310;2023-08-21T07:54:41;5.60;;;5.40;;
53299;SDS011;39187;48.476;8.310;2023-08-21T07:57:07;6.50;;;6.20;;
53299;SDS011;39187;48.476;8.310;2023-08-21T07:59:32;6.03;;;5.63;;
53299;SDS011;39187;48.476;8.310;2023-08-21T08:01:58;6.77;;;6.30;;
53299;SDS011;39187;48.476;8.310;2023-08-21T08:04:25;5.70;;;5.43;;
53299;SDS011;39187;48.476;8.310;2023-08-21T08:06:51;10.70;;;5.97;;
53299;SDS011;39187;48.476;8.310;2023-08-21T08:09:16;6.60;;;6.10;;
53299;SDS011;39187;48.476;8.310;2023-08-21T08:11:42;6.43;;;6.23;;
53299;SDS011;39187;48.476;8.310;2023-08-21T08:14:07;5.80;;;5.50;;
53299;SDS011;39187;48.476;8.310;2023-08-21T08:16:33;6.10;;;5.67;;
53299;SDS011;39187;48.476;8.310;2023-08-21T08:18:58;6.13;;;5.70;;
53299;SDS011;39187;48.476;8.310;2023-08-21T08:21:24;6.93;;;6.63;;
53299;SDS011;39187;48.476;8.310;2023-08-21T08:23:50;5.70;;;5.30;;
53299;SDS011;39187;48.476;8.310;2023-08-21T08:26:15;8.83;;;5.77;;
53299;SDS011;39187;48.476;8.310;2023-08-21T08:28:41;5.87;;;5.67;;
53299;SDS011;39187;48.476;8.310;2023-08-21T08:31:13;6.63;;;6.13;;
53299;SDS011;39187;48.476;8.310;2023-08-21T08:33:43;6.43;;;5.90;;
53299;SDS011;39187;48.476;8.310;2023-08-21T08:36:08;8.63;;;6.47;;
53299;SDS011;39187;48.476;8.310;2023-08-21T08:38:34;6.50;;;6.00;;
53299;SDS011;39187;48.476;8.310;2023-08-21T08:41:01;6.80;;;6.33;;
53299;SDS011;39187;48.476;8.310;2023-08-21T08:43:27;7.00;;;6.70;;
53299;SDS011;39187;48.476;8.310;2023-08-21T08:45:54;11.50;;;8.80;;
53299;SDS011;39187;48.476;8.310;2023-08-21T08:48:23;7.47;;;6.60;;
53299;SDS011;39187;48.476;8.310;2023-08-21T08:50:50;8.73;;;6.80;;
53299;SDS011;39187;48.476;8.310;2023-08-21T08:53:16;6.60;;;6.00;;
53299;SDS011;39187;48.476;8.310;2023-08-21T08:55:44;6.00;;;5.70;;
53299;SDS011;39187;48.476;8.310;2023-08-21T08:58:10;6.30;;;6.00;;
53299;SDS011;39187;48.476;8.310;2023-08-21T09:00:35;6.80;;;6.50;;
53299;SDS011;39187;48.476;8.310;2023-08-21T09:03:01;8.63;;;7.93;;
53299;SDS011;39187;48.476;8.310;2023-08-21T09:05:28;6.23;;;5.93;;
53299;SDS011;39187;48.476;8.310;2023-08-21T09:08:03;6.63;;;6.20;;
53299;SDS011;39187;48.476;8.310;2023-08-21T09:10:32;6.17;;;5.63;;
53299;SDS011;39187;48.476;8.310;2023-08-21T09:12:57;6.57;;;6.17;;
53299;SDS011;39187;48.476;8.310;2023-08-21T09:15:29;5.67;;;5.47;;
53299;SDS011;39187;48.476;8.310;2023-08-21T09:17:55;6.70;;;6.40;;
53299;SDS011;39187;48.476;8.310;2023-08-21T09:20:21;6.30;;;5.90;;
53299;SDS011;39187;48.476;8.310;2023-08-21T09:22:53;6.30;;;5.70;;
53299;SDS011;39187;48.476;8.310;2023-08-21T09:25:23;7.17;;;6.13;;
53299;SDS011;39187;48.476;8.310;2023-08-21T09:27:51;6.33;;;6.03;;
53299;SDS011;39187;48.476;8.310;2023-08-21T09:30:18;6.50;;;6.20;;
53299;SDS011;39187;48.476;8.310;2023-08-21T09:35:25;6.83;;;6.33;;
53299;SDS011;39187;48.476;8.310;2023-08-21T09:37:51;7.53;;;6.80;;
53299;SDS011;39187;48.476;8.310;2023-08-21T09:40:20;7.83;;;7.20;;
53299;SDS011;39187;48.476;8.310;2023-08-21T09:42:53;6.67;;;6.37;;
53299;SDS011;39187;48.476;8.310;2023-08-21T09:45:20;7.17;;;6.70;;
53299;SDS011;39187;48.476;8.310;2023-08-21T09:47:50;6.90;;;6.60;;
53299;SDS011;39187;48.476;8.310;2023-08-21T09:50:17;10.30;;;7.40;;
53299;SDS011;39187;48.476;8.310;2023-08-21T09:52:44;6.67;;;6.03;;
53299;SDS011;39187;48.476;8.310;2023-08-21T09:55:10;7.67;;;7.17;;
53299;SDS011;39187;48.476;8.310;2023-08-21T09:57:39;7.50;;;7.07;;
53299;SDS011;39187;48.476;8.310;2023-08-21T10:00:06;8.07;;;6.93;;
53299;SDS011;39187;48.476;8.310;2023-08-21T10:02:49;7.30;;;6.90;;
53299;SDS011;39187;48.476;8.310;2023-08-21T10:05:16;7.43;;;6.83;;
53299;SDS011;39187;48.476;8.310;2023-08-21T10:07:43;7.47;;;6.43;;
53299;SDS011;39187;48.476;8.310;2023-08-21T10:10:12;11.93;;;7.03;;
53299;SDS011;39187;48.476;8.310;2023-08-21T10:12:38;7.00;;;6.53;;
53299;SDS011;39187;48.476;8.310;2023-08-21T10:15:05;6.93;;;6.63;;
53299;SDS011;39187;48.476;8.310;2023-08-21T10:17:34;7.47;;;6.90;;
53299;SDS011;39187;48.476;8.310;2023-08-21T10:20:04;7.33;;;6.93;;
53299;SDS011;39187;48.476;8.310;2023-08-21T10:22:43;6.70;;;6.20;;
53299;SDS011;39187;48.476;8.310;2023-08-21T10:25:14;7.07;;;6.60;;
53299;SDS011;39187;48.476;8.310;2023-08-21T10:27:42;7.97;;;7.27;;
53299;SDS011;39187;48.476;8.310;2023-08-21T10:30:14;8.53;;;7.43;;
53299;SDS011;39187;48.476;8.310;2023-08-21T10:32:45;6.90;;;6.50;;
53299;SDS011;39187;48.476;8.310;2023-08-21T10:35:15;6.47;;;6.20;;
53299;SDS011;39187;48.476;8.310;2023-08-21T10:40:32;7.70;;;7.30;;
53299;SDS011;39187;48.476;8.310;2023-08-21T10:42:58;7.73;;;7.33;;
53299;SDS011;39187;48.476;8.310;2023-08-21T10:45:24;7.50;;;6.90;;
53299;SDS011;39187;48.476;8.310;2023-08-21T10:47:49;9.17;;;8.33;;
53299;SDS011;39187;48.476;8.310;2023-08-21T10:50:15;7.03;;;6.63;;
53299;SDS011;39187;48.476;8.310;2023-08-21T10:52:42;14.90;;;8.63;;
53299;SDS011;39187;48.476;8.310;2023-08-21T10:55:15;7.80;;;7.40;;
53299;SDS011;39187;48.476;8.310;2023-08-21T10:57:43;7.97;;;7.47;;
53299;SDS011;39187;48.476;8.310;2023-08-21T11:00:12;8.53;;;7.70;;
53299;SDS011;39187;48.476;8.310;2023-08-21T11:02:40;8.37;;;7.47;;
53299;SDS011;39187;48.476;8.310;2023-08-21T11:05:10;8.83;;;8.20;;
53299;SDS011;39187;48.476;8.310;2023-08-21T11:07:37;8.80;;;8.10;;
53299;SDS011;39187;48.476;8.310;2023-08-21T11:10:05;8.27;;;7.67;;
53299;SDS011;39187;48.476;8.310;2023-08-21T11:12:33;10.83;;;8.10;;
53299;SDS011;39187;48.476;8.310;2023-08-21T11:14:59;7.37;;;6.83;;
53299;SDS011;39187;48.476;8.310;2023-08-21T11:17:24;9.13;;;7.20;;
53299;SDS011;39187;48.476;8.310;2023-08-21T11:19:50;7.30;;;6.70;;
53299;SDS011;39187;48.476;8.310;2023-08-21T11:22:17;8.00;;;7.60;;
53299;SDS011;39187;48.476;8.310;2023-08-21T11:27:10;9.50;;;7.30;;
53299;SDS011;39187;48.476;8.310;2023-08-21T11:29:39;8.90;;;8.20;;
53299;SDS011;39187;48.476;8.310;2023-08-21T11:32:10;8.17;;;7.67;;
53299;SDS011;39187;48.476;8.310;2023-08-21T11:37:20;7.60;;;7.10;;
53299;SDS011;39187;48.476;8.310;2023-08-21T11:39:48;7.43;;;6.93;;
53299;SDS011;39187;48.476;8.310;2023-08-21T11:42:15;8.03;;;7.63;;
53299;SDS011;39187;48.476;8.310;2023-08-21T11:44:45;16.30;;;7.43;;
53299;SDS011;39187;48.476;8.310;2023-08-21T11:47:18;7.97;;;7.57;;
53299;SDS011;39187;48.476;8.310;2023-08-21T11:49:46;8.13;;;7.43;;
53299;SDS011;39187;48.476;8.310;2023-08-21T11:52:14;8.20;;;7.90;;
53299;SDS011;39187;48.476;8.310;2023-08-21T11:54:42;8.47;;;7.97;;
53299;SDS011;39187;48.476;8.310;2023-08-21T11:57:09;8.47;;;7.77;;
53299;SDS011;39187;48.476;8.310;2023-08-21T11:59:37;8.43;;;7.63;;
53299;SDS011;39187;48.476;8.310;2023-08-21T12:02:10;8.43;;;8.03;;
53299;SDS011;39187;48.476;8.310;2023-08-21T12:04:39;10.33;;;8.37;;
53299;SDS011;39187;48.476;8.310;2023-08-21T12:07:05;8.87;;;8.17;;
53299;SDS011;39187;48.476;8.310;2023-08-21T12:09:31;16.97;;;6.80;;
53299;SDS011;39187;48.476;8.310;2023-08-21T12:11:57;9.60;;;7.47;;
53299;SDS011;39187;48.476;8.310;2023-08-21T12:14:22;6.80;;;6.50;;
53299;SDS011;39187;48.476;8.310;2023-08-21T12:16:48;7.97;;;7.30;;
53299;SDS011;39187;48.476;8.310;2023-08-21T12:19:14;10.20;;;6.87;;
53299;SDS011;39187;48.476;8.310;2023-08-21T12:21:39;7.70;;;7.00;;
53299;SDS011;39187;48.476;8.310;2023-08-21T12:24:05;7.73;;;7.00;;
53299;SDS011;39187;48.476;8.310;2023-08-21T12:26:34;7.43;;;7.10;;
53299;SDS011;39187;48.476;8.310;2023-08-21T12:28:59;7.83;;;7.10;;
53299;SDS011;39187;48.476;8.310;2023-08-21T12:31:26;9.00;;;8.27;;
53299;SDS011;39187;48.476;8.310;2023-08-21T12:33:51;7.10;;;6.67;;
53299;SDS011;39187;48.476;8.310;2023-08-21T12:36:17;7.77;;;7.37;;
53299;SDS011;39187;48.476;8.310;2023-08-21T12:38:42;8.83;;;8.13;;
53299;SDS011;39187;48.476;8.310;2023-08-21T12:41:08;8.70;;;7.97;;
53299;SDS011;39187;48.476;8.310;2023-08-21T12:43:33;7.90;;;7.03;;
53299;SDS011;39187;48.476;8.310;2023-08-21T12:45:59;27.97;;;9.03;;
53299;SDS011;39187;48.476;8.310;2023-08-21T12:48:24;7.30;;;6.90;;
53299;SDS011;39187;48.476;8.310;2023-08-21T12:50:50;8.03;;;7.43;;
53299;SDS011;39187;48.476;8.310;2023-08-21T12:53:16;7.90;;;7.50;;
53299;SDS011;39187;48.476;8.310;2023-08-21T12:55:41;8.67;;;8.27;;
53299;SDS011;39187;48.476;8.310;2023-08-21T12:58:07;8.37;;;7.63;;
53299;SDS011;39187;48.476;8.310;2023-08-21T13:00:33;7.87;;;7.47;;
53299;SDS011;39187;48.476;8.310;2023-08-21T13:02:59;8.60;;;8.20;;
53299;SDS011;39187;48.476;8.310;2023-08-21T13:05:25;8.47;;;7.97;;
53299;SDS011;39187;48.476;8.310;2023-08-21T13:07:51;8.00;;;7.50;;
53299;SDS011;39187;48.476;8.310;2023-08-21T13:10:17;9.67;;;9.13;;
53299;SDS011;39187;48.476;8.310;2023-08-21T13:12:43;9.50;;;8.50;;
53299;SDS011;39187;48.476;8.310;2023-08-21T13:15:09;8.00;;;7.50;;
53299;SDS011;39187;48.476;8.310;2023-08-21T13:17:35;11.93;;;9.27;;
53299;SDS011;39187;48.476;8.310;2023-08-21T13:20:01;11.47;;;10.50;;
53299;SDS011;39187;48.476;8.310;2023-08-21T13:22:28;10.13;;;9.20;;
53299;SDS011;39187;48.476;8.310;2023-08-21T13:24:53;7.53;;;6.83;;
53299;SDS011;39187;48.476;8.310;2023-08-21T13:27:19;8.63;;;8.03;;
53299;SDS011;39187;48.476;8.310;2023-08-21T13:29:45;7.87;;;7.47;;
53299;SDS011;39187;48.476;8.310;2023-08-21T13:32:11;7.43;;;7.03;;
53299;SDS011;39187;48.476;8.310;2023-08-21T13:34:37;8.33;;;7.23;;
53299;SDS011;39187;48.476;8.310;2023-08-21T13:37:03;6.70;;;6.30;;
53299;SDS011;39187;48.476;8.310;2023-08-21T13:39:29;6.67;;;6.10;;
53299;SDS011;39187;48.476;8.310;2023-08-21T13:41:55;6.70;;;6.20;;
53299;SDS011;39187;48.476;8.310;2023-08-21T13:44:21;6.17;;;5.97;;
53299;SDS011;39187;48.476;8.310;2023-08-21T13:46:47;6.43;;;6.03;;
53299;SDS011;39187;48.476;8.310;2023-08-21T13:49:12;6.03;;;5.57;;
53299;SDS011;39187;48.476;8.310;2023-08-21T13:51:38;8.13;;;5.80;;
53299;SDS011;39187;48.476;8.310;2023-08-21T13:54:03;5.83;;;5.50;;
53299;SDS011;39187;48.476;8.310;2023-08-21T13:56:29;4.80;;;4.70;;
53299;SDS011;39187;48.476;8.310;2023-08-21T13:58:55;6.20;;;5.63;;
53299;SDS011;39187;48.476;8.310;2023-08-21T14:01:20;5.73;;;5.33;;
53299;SDS011;39187;48.476;8.310;2023-08-21T14:03:46;5.20;;;4.90;;
53299;SDS011;39187;48.476;8.310;2023-08-21T14:06:11;6.10;;;5.70;;
53299;SDS011;39187;48.476;8.310;2023-08-21T14:08:37;4.87;;;4.67;;
53299;SDS011;39187;48.476;8.310;2023-08-21T14:11:03;6.20;;;4.40;;
53299;SDS011;39187;48.476;8.310;2023-08-21T14:13:29;6.60;;;4.77;;
53299;SDS011;39187;48.476;8.310;2023-08-21T14:15:55;5.23;;;4.93;;
53299;SDS011;39187;48.476;8.310;2023-08-21T14:18:20;5.57;;;5.27;;
53299;SDS011;39187;48.476;8.310;2023-08-21T14:20:46;5.53;;;5.30;;
53299;SDS011;39187;48.476;8.310;2023-08-21T14:23:12;8.30;;;5.67;;
53299;SDS011;39187;48.476;8.310;2023-08-21T14:25:37;4.80;;;4.43;;
53299;SDS011;39187;48.476;8.310;2023-08-21T14:28:03;5.73;;;5.43;;
53299;SDS011;39187;48.476;8.310;2023-08-21T14:30:29;5.10;;;4.80;;
53299;SDS011;39187;48.476;8.310;2023-08-21T14:32:55;4.57;;;4.37;;
53299;SDS011;39187;48.476;8.310;2023-08-21T14:35:21;3.87;;;3.50;;
53299;SDS011;39187;48.476;8.310;2023-08-21T14:37:46;6.60;;;5.23;;
53299;SDS011;39187;48.476;8.310;2023-08-21T14:40:12;5.07;;;4.67;;
53299;SDS011;39187;48.476;8.310;2023-08-21T14:42:38;5.60;;;5.10;;
53299;SDS011;39187;48.476;8.310;2023-08-21T14:45:04;5.50;;;5.20;;
53299;SDS011;39187;48.476;8.310;2023-08-21T14:47:30;6.57;;;5.70;;
53299;SDS011;39187;48.476;8.310;2023-08-21T14:49:56;6.73;;;6.30;;
53299;SDS011;39187;48.476;8.310;2023-08-21T14:52:22;6.20;;;5.83;;
53299;SDS011;39187;48.476;8.310;2023-08-21T14:54:50;7.83;;;6.20;;